createdAt,value
2022-11-12T00:01:28.831Z,2.80
2022-11-12T00:04:14.308Z,2.80
2022-11-12T00:06:59.576Z,2.80
2022-11-12T00:09:44.916Z,2.80
2022-11-12T00:12:30.208Z,2.80
2022-11-12T00:15:15.814Z,2.80
2022-11-12T00:18:01.723Z,2.80
2022-11-12T00:20:47.195Z,2.80
2022-11-12T00:23:32.924Z,2.80
2022-11-12T00:26:18.453Z,2.80
2022-11-12T00:29:04.059Z,2.70
2022-11-12T00:31:49.574Z,2.70
2022-11-12T00:34:36.384Z,2.60
2022-11-12T00:37:23.161Z,2.60
2022-11-12T00:40:10.303Z,2.50
2022-11-12T00:42:55.768Z,2.40
2022-11-12T00:45:43.269Z,2.40
2022-11-12T00:48:28.690Z,2.30
2022-11-12T00:51:14.224Z,2.30
2022-11-12T00:54:00.502Z,2.30
2022-11-12T00:56:47.884Z,2.20
2022-11-12T00:59:33.031Z,2.20
2022-11-12T01:02:20.017Z,2.20
2022-11-12T01:05:05.727Z,2.20
2022-11-12T01:07:55.800Z,2.20
2022-11-12T01:10:41.815Z,2.20
2022-11-12T01:13:27.031Z,2.20
2022-11-12T01:16:19.861Z,2.20
2022-11-12T01:19:08.524Z,2.20
2022-11-12T01:21:53.948Z,2.20
2022-11-12T01:24:39.661Z,2.20
2022-11-12T01:27:25.044Z,2.20
2022-11-12T01:30:10.965Z,2.20
2022-11-12T01:32:56.875Z,2.20
2022-11-12T01:35:42.402Z,2.20
2022-11-12T01:38:27.945Z,2.10
2022-11-12T01:41:18.071Z,2.10
2022-11-12T01:44:20.094Z,2.10
2022-11-12T01:47:20.693Z,2.10
2022-11-12T01:50:42.046Z,2.10
2022-11-12T01:53:32.617Z,2.10
2022-11-12T01:56:19.694Z,2.10
2022-11-12T01:59:10.712Z,2.10
2022-11-12T02:01:56.505Z,2.10
2022-11-12T02:04:44.466Z,2.10
2022-11-12T02:07:30.844Z,2.10
2022-11-12T02:10:16.136Z,2.00
2022-11-12T02:13:21.143Z,2.00
2022-11-12T02:16:08.629Z,2.00
2022-11-12T02:18:54.266Z,2.00
2022-11-12T02:21:40.198Z,2.00
2022-11-12T02:24:25.649Z,2.00
2022-11-12T02:27:12.027Z,2.00
2022-11-12T02:29:57.582Z,2.00
2022-11-12T02:32:43.007Z,2.10
2022-11-12T02:35:28.329Z,2.10
2022-11-12T02:38:13.511Z,2.10
2022-11-12T02:40:58.694Z,2.20
2022-11-12T02:43:45.100Z,2.20
2022-11-12T02:46:30.260Z,2.20
2022-11-12T02:49:16.110Z,2.20
2022-11-12T02:52:01.199Z,2.20
2022-11-12T02:54:46.559Z,2.30
2022-11-12T02:57:31.720Z,2.30
2022-11-12T03:00:18.251Z,2.30
2022-11-12T03:03:03.955Z,2.30
2022-11-12T03:06:15.866Z,2.30
2022-11-12T03:09:01.345Z,2.30
2022-11-12T03:11:46.786Z,2.30
2022-11-12T03:14:31.966Z,2.30
2022-11-12T03:17:17.034Z,2.30
2022-11-12T03:20:02.797Z,2.30
2022-11-12T03:23:01.093Z,2.40
2022-11-12T03:25:46.393Z,2.50
2022-11-12T03:28:31.972Z,2.50
2022-11-12T03:31:17.594Z,2.50
2022-11-12T03:34:03.012Z,2.50
2022-11-12T03:36:48.543Z,2.60
2022-11-12T03:39:33.813Z,2.70
2022-11-12T03:42:19.048Z,2.70
2022-11-12T03:45:04.853Z,2.80
2022-11-12T03:47:52.850Z,2.90
2022-11-12T03:50:37.951Z,2.90
2022-11-12T03:53:23.367Z,3.00
2022-11-12T03:56:09.185Z,3.00
2022-11-12T03:58:54.374Z,3.00
2022-11-12T04:01:41.046Z,3.00
2022-11-12T04:04:46.589Z,3.00
2022-11-12T04:07:50.911Z,3.10
2022-11-12T04:10:36.516Z,3.10
2022-11-12T04:13:27.701Z,3.10
2022-11-12T04:16:35.026Z,3.10
2022-11-12T04:19:39.409Z,3.20
2022-11-12T04:22:24.818Z,3.20
2022-11-12T04:25:31.449Z,3.20
2022-11-12T04:28:16.862Z,3.30
2022-11-12T04:31:02.652Z,3.30
2022-11-12T04:33:48.194Z,3.30
2022-11-12T04:36:33.484Z,3.40
2022-11-12T04:39:18.590Z,3.30
2022-11-12T04:42:23.070Z,3.30
2022-11-12T04:45:11.294Z,3.30
2022-11-12T04:47:56.577Z,3.20
2022-11-12T04:50:44.247Z,3.20
2022-11-12T04:53:30.502Z,3.20
2022-11-12T04:56:15.880Z,3.10
2022-11-12T04:59:01.092Z,3.10
2022-11-12T05:01:46.778Z,3.10
2022-11-12T05:04:32.104Z,3.10
2022-11-12T05:07:17.613Z,3.10
2022-11-12T05:10:02.847Z,3.00
2022-11-12T05:12:48.291Z,3.00
2022-11-12T05:15:34.418Z,3.00
2022-11-12T05:18:20.072Z,3.00
2022-11-12T05:21:25.856Z,3.00
2022-11-12T05:24:27.382Z,2.90
2022-11-12T05:27:20.276Z,2.90
2022-11-12T05:30:05.955Z,2.90
2022-11-12T05:32:52.310Z,2.90
2022-11-12T05:35:37.680Z,2.80
2022-11-12T05:38:24.075Z,2.70
2022-11-12T05:41:10.035Z,2.70
2022-11-12T05:43:55.227Z,2.70
2022-11-12T05:46:40.768Z,2.70
2022-11-12T05:49:26.589Z,2.60
2022-11-12T05:52:11.884Z,2.60
2022-11-12T05:54:58.077Z,2.50
2022-11-12T05:57:43.491Z,2.50
2022-11-12T06:00:29.608Z,2.50
2022-11-12T06:03:14.857Z,2.40
2022-11-12T06:06:00.150Z,2.30
2022-11-12T06:08:45.591Z,2.30
2022-11-12T06:11:30.739Z,2.30
2022-11-12T06:14:16.086Z,2.30
2022-11-12T06:17:01.300Z,2.20
2022-11-12T06:19:47.819Z,2.20
2022-11-12T06:22:33.128Z,2.20
2022-11-12T06:25:18.322Z,2.20
2022-11-12T06:28:03.616Z,2.20
2022-11-12T06:30:49.068Z,2.20
2022-11-12T06:33:34.214Z,2.10
2022-11-12T06:36:20.502Z,2.10
2022-11-12T06:39:05.920Z,2.10
2022-11-12T06:41:51.503Z,2.10
2022-11-12T06:44:37.899Z,2.00
2022-11-12T06:47:23.088Z,2.00
2022-11-12T06:50:08.609Z,2.10
2022-11-12T06:52:59.217Z,2.10
2022-11-12T06:55:44.433Z,2.10
2022-11-12T06:58:30.257Z,2.20
2022-11-12T07:01:17.248Z,2.20
2022-11-12T07:04:02.832Z,2.30
2022-11-12T07:06:49.388Z,2.30
2022-11-12T07:09:34.324Z,2.40
2022-11-12T07:12:19.409Z,2.50
2022-11-12T07:15:05.085Z,2.50
2022-11-12T07:17:50.236Z,2.60
2022-11-12T07:20:35.403Z,2.60
2022-11-12T07:23:20.537Z,2.70
2022-11-12T07:26:17.898Z,2.70
2022-11-12T07:29:03.102Z,2.70
2022-11-12T07:31:48.918Z,2.80
2022-11-12T07:34:34.586Z,2.80
2022-11-12T07:37:20.543Z,2.80
2022-11-12T07:40:06.376Z,2.90
2022-11-12T07:42:51.941Z,3.00
2022-11-12T07:45:37.225Z,3.00
2022-11-12T07:48:22.585Z,3.10
2022-11-12T07:51:16.137Z,3.20
2022-11-12T07:54:01.701Z,3.40
2022-11-12T07:56:46.940Z,3.60
2022-11-12T07:59:32.162Z,3.90
2022-11-12T08:02:17.416Z,4.20
2022-11-12T08:05:02.576Z,4.50
2022-11-12T08:07:48.247Z,4.70
2022-11-12T08:10:34.015Z,4.90
2022-11-12T08:13:19.367Z,5.10
2022-11-12T08:16:04.860Z,5.20
2022-11-12T08:18:50.103Z,5.30
2022-11-12T08:21:36.378Z,5.50
2022-11-12T08:24:21.593Z,5.70
2022-11-12T08:27:06.707Z,5.80
2022-11-12T08:29:52.058Z,5.90
2022-11-12T08:32:37.321Z,6.00
2022-11-12T08:35:22.616Z,6.10
2022-11-12T08:38:09.357Z,6.10
2022-11-12T08:40:54.795Z,6.20
2022-11-12T08:43:41.763Z,6.20
2022-11-12T08:46:26.903Z,6.30
2022-11-12T08:49:12.140Z,6.40
2022-11-12T08:51:57.788Z,6.60
2022-11-12T08:54:43.073Z,6.70
2022-11-12T08:57:28.247Z,6.80
2022-11-12T09:00:14.309Z,6.90
2022-11-12T09:03:05.780Z,7.10
2022-11-12T09:05:52.385Z,7.30
2022-11-12T09:08:38.382Z,7.60
2022-11-12T09:11:23.815Z,7.90
2022-11-12T09:14:09.407Z,8.10
2022-11-12T09:16:54.945Z,8.30
2022-11-12T09:19:42.914Z,8.50
2022-11-12T09:22:28.918Z,8.70
2022-11-12T09:25:14.212Z,9.30
2022-11-12T09:28:13.438Z,9.90
2022-11-12T09:30:59.059Z,10.40
2022-11-12T09:33:44.649Z,10.90
2022-11-12T09:36:30.135Z,11.20
2022-11-12T09:39:16.442Z,11.60
2022-11-12T09:42:13.126Z,11.90
2022-11-12T09:45:27.675Z,12.10
2022-11-12T09:48:18.530Z,12.40
2022-11-12T09:51:10.894Z,12.60
2022-11-12T09:54:27.229Z,12.40
2022-11-12T09:57:12.906Z,12.30
2022-11-12T09:59:58.655Z,12.20
2022-11-12T10:02:53.792Z,12.20
2022-11-12T10:05:52.295Z,12.30
2022-11-12T10:09:01.780Z,12.30
2022-11-12T10:12:24.412Z,12.20
2022-11-12T10:15:49.689Z,12.20
2022-11-12T10:19:13.151Z,12.30
2022-11-12T10:22:22.065Z,12.50
2022-11-12T10:25:17.060Z,12.60
2022-11-12T10:28:14.109Z,12.70
2022-11-12T10:31:06.106Z,12.70
2022-11-12T10:34:05.562Z,12.80
2022-11-12T10:37:02.561Z,12.70
2022-11-12T10:39:48.364Z,12.60
2022-11-12T10:42:33.428Z,12.40
2022-11-12T10:45:23.250Z,12.40
2022-11-12T10:48:29.312Z,12.40
2022-11-12T10:51:27.512Z,12.30
2022-11-12T10:54:35.148Z,12.00
2022-11-12T10:57:26.470Z,11.80
2022-11-12T11:00:18.985Z,12.10
2022-11-12T11:03:25.898Z,12.50
2022-11-12T11:06:15.495Z,12.70
2022-11-12T11:09:12.929Z,12.90
2022-11-12T11:11:58.808Z,13.10
2022-11-12T11:14:44.528Z,13.30
2022-11-12T11:17:30.511Z,13.60
2022-11-12T11:20:35.613Z,13.90
2022-11-12T11:23:26.302Z,14.20
2022-11-12T11:26:37.598Z,14.30
2022-11-12T11:29:56.251Z,14.30
2022-11-12T11:33:03.215Z,14.30
2022-11-12T11:35:56.117Z,14.40
2022-11-12T11:39:13.421Z,14.40
2022-11-12T11:42:21.800Z,14.50
2022-11-12T11:45:25.848Z,14.50
2022-11-12T11:48:33.284Z,14.60
2022-11-12T11:51:33.173Z,14.70
2022-11-12T11:54:50.307Z,14.70
2022-11-12T11:57:56.360Z,14.60
2022-11-12T12:00:55.956Z,14.30
2022-11-12T12:04:00.263Z,14.00
2022-11-12T12:06:57.884Z,13.70
2022-11-12T12:09:55.109Z,13.40
2022-11-12T12:13:04.477Z,13.40
2022-11-12T12:16:07.440Z,13.30
2022-11-12T12:19:15.622Z,13.40
2022-11-12T12:22:10.694Z,13.30
2022-11-12T12:25:29.997Z,13.20
2022-11-12T12:28:38.677Z,13.20
2022-11-12T12:31:29.447Z,13.40
2022-11-12T12:34:25.344Z,13.60
2022-11-12T12:37:26.752Z,13.70
2022-11-12T12:40:21.117Z,13.90
2022-11-12T12:43:46.645Z,13.90
2022-11-12T12:46:38.758Z,14.10
2022-11-12T12:49:36.919Z,14.00
2022-11-12T12:52:22.191Z,14.00
2022-11-12T12:55:34.705Z,14.00
2022-11-12T12:58:29.117Z,13.90
2022-11-12T13:01:21.129Z,13.80
2022-11-12T13:04:11.775Z,13.80
2022-11-12T13:06:57.112Z,13.60
2022-11-12T13:09:42.444Z,13.50
2022-11-12T13:13:14.182Z,13.30
2022-11-12T13:16:00.423Z,13.20
2022-11-12T13:18:56.615Z,13.10
2022-11-12T13:21:44.375Z,13.10
2022-11-12T13:25:05.402Z,13.00
2022-11-12T13:27:50.739Z,12.80
2022-11-12T13:30:35.934Z,12.70
2022-11-12T13:33:29.358Z,12.50
2022-11-12T13:36:28.719Z,12.50
2022-11-12T13:39:20.149Z,12.50
2022-11-12T13:42:36.518Z,12.50
2022-11-12T13:45:24.974Z,12.50
2022-11-12T13:48:21.507Z,12.50
2022-11-12T13:51:27.210Z,12.40
2022-11-12T13:54:33.213Z,12.40
2022-11-12T13:57:23.973Z,12.30
2022-11-12T14:00:20.606Z,12.10
2022-11-12T14:03:07.950Z,11.90
2022-11-12T14:05:53.715Z,11.90
2022-11-12T14:08:55.722Z,11.80
2022-11-12T14:12:03.071Z,11.60
2022-11-12T14:15:00.258Z,11.50
2022-11-12T14:18:18.026Z,11.40
2022-11-12T14:21:32.243Z,11.30
2022-11-12T14:24:17.888Z,11.20
2022-11-12T14:27:02.965Z,11.10
2022-11-12T14:29:48.649Z,11.00
2022-11-12T14:32:47.465Z,10.90
2022-11-12T14:35:39.350Z,10.80
2022-11-12T14:38:30.525Z,10.60
2022-11-12T14:41:33.321Z,10.50
2022-11-12T14:44:23.646Z,10.30
2022-11-12T14:47:10.108Z,10.10
2022-11-12T14:49:55.424Z,9.90
2022-11-12T14:52:43.573Z,9.70
2022-11-12T14:55:35.440Z,9.60
2022-11-12T14:58:22.899Z,9.40
2022-11-12T15:01:44.936Z,9.20
2022-11-12T15:04:26.753Z,9.00
2022-11-12T15:07:26.540Z,8.90
2022-11-12T15:10:44.313Z,8.80
2022-11-12T15:13:40.061Z,8.80
2022-11-12T15:16:29.238Z,8.60
2022-11-12T15:19:22.663Z,8.50
2022-11-12T15:22:19.717Z,8.40
2022-11-12T15:25:19.846Z,8.40
2022-11-12T15:28:22.102Z,8.30
2022-11-12T15:31:19.580Z,8.10
2022-11-12T15:34:27.852Z,8.00
2022-11-12T15:37:17.975Z,7.90
2022-11-12T15:40:12.337Z,7.70
2022-11-12T15:42:57.921Z,7.60
2022-11-12T15:45:43.751Z,7.50
2022-11-12T15:48:29.072Z,7.40
2022-11-12T15:51:16.970Z,7.30
2022-11-12T15:54:02.156Z,7.20
2022-11-12T15:56:48.096Z,7.10
2022-11-12T15:59:34.399Z,7.00
2022-11-12T16:02:19.779Z,6.90
2022-11-12T16:05:06.571Z,6.80
2022-11-12T16:07:51.592Z,6.80
2022-11-12T16:10:38.648Z,6.70
2022-11-12T16:13:32.074Z,6.70
2022-11-12T16:16:17.347Z,6.60
2022-11-12T16:19:02.520Z,6.50
2022-11-12T16:21:47.987Z,6.50
2022-11-12T16:24:33.479Z,6.40
2022-11-12T16:27:20.513Z,6.30
2022-11-12T16:30:28.742Z,6.20
2022-11-12T16:33:14.433Z,6.20
2022-11-12T16:36:00.027Z,6.10
2022-11-12T16:38:46.621Z,6.00
2022-11-12T16:41:32.303Z,5.90
2022-11-12T16:44:17.628Z,5.80
2022-11-12T16:47:04.335Z,5.80
2022-11-12T16:49:49.755Z,5.70
2022-11-12T16:52:34.903Z,5.60
2022-11-12T16:55:21.007Z,5.50
2022-11-12T16:58:06.735Z,5.40
2022-11-12T17:00:52.189Z,5.30
2022-11-12T17:03:37.638Z,5.30
2022-11-12T17:06:31.282Z,5.20
2022-11-12T17:09:16.854Z,5.20
2022-11-12T17:12:02.764Z,5.10
2022-11-12T17:14:48.245Z,5.10
2022-11-12T17:17:33.641Z,5.00
2022-11-12T17:20:19.054Z,5.00
2022-11-12T17:23:04.865Z,5.00
2022-11-12T17:26:00.669Z,4.90
2022-11-12T17:28:46.671Z,4.80
2022-11-12T17:31:32.509Z,4.80
2022-11-12T17:34:18.095Z,4.70
2022-11-12T17:37:03.283Z,4.70
2022-11-12T17:39:49.319Z,4.60
2022-11-12T17:42:34.775Z,4.60
2022-11-12T17:45:20.030Z,4.60
2022-11-12T17:48:05.351Z,4.50
2022-11-12T17:50:52.261Z,4.50
2022-11-12T17:53:37.853Z,4.50
2022-11-12T17:56:24.205Z,4.50
2022-11-12T17:59:09.727Z,4.40
2022-11-12T18:01:55.093Z,4.40
2022-11-12T18:04:40.730Z,4.30
2022-11-12T18:07:25.914Z,4.30
2022-11-12T18:10:14.424Z,4.20
2022-11-12T18:13:02.199Z,4.20
2022-11-12T18:15:47.691Z,4.10
2022-11-12T18:18:32.835Z,4.10
2022-11-12T18:21:18.200Z,4.10
2022-11-12T18:24:03.682Z,4.00
2022-11-12T18:26:48.833Z,3.90
2022-11-12T18:29:35.909Z,3.90
2022-11-12T18:32:21.332Z,3.80
2022-11-12T18:35:07.252Z,3.80
2022-11-12T18:37:52.872Z,3.70
2022-11-12T18:40:38.286Z,3.70
2022-11-12T18:43:24.710Z,3.70
2022-11-12T18:46:11.016Z,3.60
2022-11-12T18:48:56.139Z,3.60
2022-11-12T18:51:42.059Z,3.60
2022-11-12T18:54:27.781Z,3.60
2022-11-12T18:57:13.335Z,3.60
2022-11-12T18:59:58.541Z,3.60
2022-11-12T19:02:43.894Z,3.60
2022-11-12T19:05:29.285Z,3.60
2022-11-12T19:08:14.409Z,3.60
2022-11-12T19:11:05.119Z,3.50
2022-11-12T19:13:52.939Z,3.50
2022-11-12T19:16:44.759Z,3.50
2022-11-12T19:19:30.506Z,3.50
2022-11-12T19:22:15.875Z,3.50
2022-11-12T19:25:04.012Z,3.40
2022-11-12T19:27:49.721Z,3.40
2022-11-12T19:30:35.062Z,3.40
2022-11-12T19:33:20.416Z,3.30
2022-11-12T19:36:07.344Z,3.30
2022-11-12T19:38:57.843Z,3.30
2022-11-12T19:41:43.289Z,3.30
2022-11-12T19:44:28.637Z,3.20
2022-11-12T19:47:13.891Z,3.20
2022-11-12T19:49:59.272Z,3.20
2022-11-12T19:52:44.858Z,3.20
2022-11-12T19:55:34.574Z,3.20
2022-11-12T19:58:22.682Z,3.20
2022-11-12T20:01:10.914Z,3.10
2022-11-12T20:03:57.276Z,3.10
2022-11-12T20:06:43.019Z,3.10
2022-11-12T20:09:28.388Z,3.10
2022-11-12T20:12:14.945Z,3.00
2022-11-12T20:15:00.385Z,3.00
2022-11-12T20:17:45.753Z,2.90
2022-11-12T20:20:30.975Z,2.90
2022-11-12T20:23:16.478Z,2.90
2022-11-12T20:26:04.567Z,2.80
2022-11-12T20:28:50.238Z,2.80
2022-11-12T20:31:35.850Z,2.70
2022-11-12T20:34:21.325Z,2.70
2022-11-12T20:37:06.603Z,2.60
2022-11-12T20:39:52.269Z,2.60
2022-11-12T20:42:37.810Z,2.60
2022-11-12T20:45:23.399Z,2.60
2022-11-12T20:48:08.765Z,2.50
2022-11-12T20:51:25.327Z,2.50
2022-11-12T20:54:11.558Z,2.50
2022-11-12T20:56:57.064Z,2.50
2022-11-12T20:59:43.212Z,2.50
2022-11-12T21:02:28.574Z,2.50
2022-11-12T21:05:13.974Z,2.50
2022-11-12T21:07:59.223Z,2.50
2022-11-12T21:10:49.063Z,2.40
2022-11-12T21:13:38.398Z,2.40
2022-11-12T21:16:23.802Z,2.40
2022-11-12T21:19:09.199Z,2.40
2022-11-12T21:21:54.562Z,2.30
2022-11-12T21:24:39.937Z,2.30
2022-11-12T21:27:25.193Z,2.20
2022-11-12T21:30:10.770Z,2.20
2022-11-12T21:32:56.682Z,2.10
2022-11-12T21:35:42.294Z,2.10
2022-11-12T21:38:28.229Z,2.10
2022-11-12T21:41:16.365Z,2.00
2022-11-12T21:44:01.636Z,2.00
2022-11-12T21:46:47.102Z,2.00
2022-11-12T21:50:02.945Z,2.00
2022-11-12T21:52:48.121Z,2.00
2022-11-12T21:55:33.753Z,2.00
2022-11-12T21:58:18.987Z,1.90
2022-11-12T22:01:11.487Z,1.90
2022-11-12T22:03:58.796Z,1.90
2022-11-12T22:06:44.320Z,1.90
2022-11-12T22:09:30.006Z,1.90
2022-11-12T22:12:20.663Z,1.90
2022-11-12T22:15:06.855Z,1.90
2022-11-12T22:17:52.279Z,1.90
2022-11-12T22:20:37.648Z,1.90
2022-11-12T22:23:22.837Z,1.90
2022-11-12T22:26:11.753Z,1.90
2022-11-12T22:28:58.552Z,1.80
2022-11-12T22:31:44.088Z,1.90
2022-11-12T22:34:29.413Z,1.90
2022-11-12T22:37:15.657Z,1.90
2022-11-12T22:40:00.932Z,2.00
2022-11-12T22:42:46.418Z,2.00
2022-11-12T22:45:35.168Z,2.00
2022-11-12T22:48:20.639Z,2.00
2022-11-12T22:51:08.706Z,1.90
2022-11-12T22:53:58.744Z,1.90
2022-11-12T22:56:44.374Z,1.90
2022-11-12T22:59:30.962Z,1.90
2022-11-12T23:02:16.109Z,1.90
2022-11-12T23:05:02.349Z,1.80
2022-11-12T23:07:47.686Z,1.80
2022-11-12T23:10:33.112Z,1.90
2022-11-12T23:13:18.296Z,1.80
2022-11-12T23:16:07.251Z,1.80
2022-11-12T23:18:53.482Z,1.80
2022-11-12T23:21:38.734Z,1.80
2022-11-12T23:24:23.976Z,1.80
2022-11-12T23:27:09.195Z,1.80
2022-11-12T23:29:54.711Z,1.70
2022-11-12T23:32:40.154Z,1.70
2022-11-12T23:35:25.294Z,1.70
2022-11-12T23:38:10.532Z,1.70
2022-11-12T23:40:56.432Z,1.70
2022-11-12T23:43:42.204Z,1.70
2022-11-12T23:46:27.730Z,1.70
2022-11-12T23:49:12.981Z,1.60
2022-11-12T23:51:58.613Z,1.60
2022-11-12T23:54:44.245Z,1.60
2022-11-12T23:57:29.593Z,1.60
